hintergrundbild

 METAR AND TAF INFORMATION
METAR FOR LICJ
ADDS - METARS form results

(1519 UTC 05 June 2020)
Data provider http://aviationweather.gov/metar/data/
 
METAR text: LICJ 051450Z 27017KT 9999 SCT020 21/16 Q1006
Conditions at: LICJ (PALERMO/POINT RA, IT) observed 1450 UTC 05 June 2020
Temperature: 21.0°C (70°F)
Dewpoint: 16.0°C (61°F) [RH = 73%]
Pressure (altimeter): 29.70 inches Hg (1006.0 mb)
Winds: from the W (270 degrees) at 20 MPH (17 knots; 8.7 m/s)
Visibility: 6 or more miles (10+ km)
Ceiling: at least 12,000 feet AGL
Clouds: scattered clouds at 2000 feet AGL
Weather: no significant weather observed at this time

METAR text: LICJ 051420Z 26016KT 9999 SCT018 21/17 Q1006
Conditions at: LICJ (PALERMO/POINT RA, IT) observed 1420 UTC 05 June 2020
Temperature: 21.0°C (70°F)
Dewpoint: 17.0°C (63°F) [RH = 78%]
Pressure (altimeter): 29.70 inches Hg (1006.0 mb)
Winds: from the W (260 degrees) at 18 MPH (16 knots; 8.2 m/s)
Visibility: 6 or more miles (10+ km)
Ceiling: at least 12,000 feet AGL
Clouds: scattered clouds at 1800 feet AGL
Weather: no significant weather observed at this time

Forecast for: LICJ (PALERMO/POINT RA, IT)
Text: TAF LICJ 051100Z 0512/0612 28018G28KT 9999 SCT030
Forecast period: 1200 UTC 05 June 2020 to 1200 UTC 06 June 2020
Forecast type: FROM: standard forecast or significant change
Winds: from the W (280 degrees) at 21 MPH (18 knots; 9.3 m/s)
gusting to 32 MPH (28 knots; 14.4 m/s)
Visibility: 6 or more miles 10+ km)
Ceiling: at least 12,000 feet AGL
Clouds: scattered clouds at 3000 feet AGL
Weather: no significant weather forecast for this period

 AIRPORT MAP

 RUNWAY INFORMATION
Runway 02 Runway length 6804 ft Runway width 148 ft
Runway elevation 42 ft Runway displaced threshold 10 ft Runway heading 24
Runway 20 Runway length 6804 ft Runway width 148 ft
Runway elevation 22 ft Runway displaced threshold 10 ft Runway heading 204
Runway 07 Runway length 10912 ft Runway width 197 ft
Runway elevation 33 ft Runway displaced threshold 404 ft Runway heading 67
Runway 25 Runway length 10912 ft Runway width 197 ft
Runway elevation 50 ft Runway displaced threshold 679 ft Runway heading 247

 AIRPORT FREQUENCIES
Type APP Name APP Frequency 120.2 MHZ
Type GND Name RAISI GND Frequency 121.625 MHZ
Type TWR Name RAISI TWR Frequency 119.05 MHZ

 AIRPORT NEAR NAVIGATION AIDS
Type VOR-DME Name Palermo Frequency 112300 KHZ
Type NDB Name Palermo Frequency 356 KHZ
Type VOR-DME Name Raisi Frequency 113000 KHZ
Type NDB Name Raisi Frequency 329 KHZ



Impressum